Time;durP1;ratioP1;P1;durP2;ratioP2;P2;SDS_P1;SDS_P2;PMS_P1;PMS_P2;Temp;Humidity;BMP_temperature;BMP_pressure;BME280_temperature;BME280_humidity;BME280_pressure;Samples;Min_cycle;Max_cycle;Signal;HPM_P1;HPM_P2
2022/01/25 00:15:03;;;;;;;;;;;;;;;27.74;50.49;98450.34;625238;227;63193;-65
2022/01/25 00:24:19;;;;;;;;;;;;;;;27.70;52.23;98453.91;625240;227;63071;-68
2022/01/25 00:27:00;;;;;;;;;;;;;;;27.67;52.69;98457.97;625202;227;64966;-66
2022/01/25 00:29:28;;;;;;;;;;;;;;;27.66;52.42;98459.04;624504;227;65271;-66
2022/01/25 00:31:44;;;;;;;;;;;;;;;27.66;49.92;98459.87;624614;227;65720;-66
2022/01/25 00:34:12;;;;;;;;;;;;;;;27.66;52.68;98453.64;625243;227;63613;-66
2022/01/25 00:36:39;;;;;;;;;;;;;;;27.64;50.25;98456.63;625308;227;63025;-66
2022/01/25 00:39:07;;;;;;;;;;;;;;;27.63;52.82;98459.60;625242;227;64099;-66
2022/01/25 00:41:34;;;;;;;;;;;;;;;27.62;54.18;98447.20;625270;227;64991;-66
2022/01/25 00:44:02;;;;;;;;;;;;;;;27.61;51.41;98440.16;625257;227;64844;-66
2022/01/25 00:46:30;;;;;;;;;;;;;;;27.61;51.69;98449.09;625214;227;64050;-66
2022/01/25 00:49:02;;;;;;;;;;;;;;;27.59;52.68;98448.56;625278;227;65339;-66
2022/01/25 00:56:47;;;;;;;;;;;;;;;27.58;54.39;98446.95;623118;228;63333;-66
2022/01/25 00:59:13;;;;;;;;;;;;;;;27.54;50.22;98445.09;622814;227;65075;-66
2022/01/25 01:01:41;;;;;;;;;;;;;;;27.56;53.50;98446.42;623089;228;63087;-66
2022/01/25 01:04:09;;;;;;;;;;;;;;;27.52;54.38;98441.85;623141;228;62923;-66
2022/01/25 01:06:38;;;;;;;;;;;;;;;27.50;50.24;98436.75;623076;228;63121;-66
2022/01/25 01:09:11;;;;;;;;;;;;;;;27.49;52.75;98443.22;623072;228;65732;-66
2022/01/25 01:11:45;;;;;;;;;;;;;;;27.47;55.55;98450.78;622787;228;63077;-65
2022/01/25 01:43:38;;;;;;;;;;;;;;;27.29;55.49;98429.84;623181;227;64519;-65
2022/01/25 01:51:21;;;;;;;;;;;;;;;27.26;57.03;98435.81;623062;228;65269;-65
2022/01/25 01:53:45;;;;;;;;;;;;;;;27.21;55.89;98423.94;622936;227;65202;-65
2022/01/25 01:56:12;;;;;;;;;;;;;;;27.22;57.11;98425.54;623174;228;64962;-65
2022/01/25 01:58:40;;;;;;;;;;;;;;;27.22;55.66;98427.44;623119;228;64841;-65
2022/01/25 02:01:09;;;;;;;;;;;;;;;27.21;54.92;98413.14;623098;228;64817;-66
2022/01/25 02:03:37;;;;;;;;;;;;;;;27.19;52.47;98412.61;623046;227;64981;-68
2022/01/25 02:06:04;;;;;;;;;;;;;;;27.18;57.63;98416.40;623120;228;64852;-68
2022/01/25 02:08:33;;;;;;;;;;;;;;;27.16;55.24;98406.94;623181;228;64823;-66
2022/01/25 02:11:02;;;;;;;;;;;;;;;27.14;54.81;98409.90;623113;228;64895;-66
2022/01/25 02:13:29;;;;;;;;;;;;;;;27.13;56.88;98405.59;623120;228;64991;-66
2022/01/25 02:15:59;;;;;;;;;;;;;;;27.12;56.90;98397.77;623095;228;62712;-66
2022/01/25 02:23:57;;;;;;;;;;;;;;;27.08;56.17;98384.03;623119;228;65190;-66
2022/01/25 02:26:25;;;;;;;;;;;;;;;27.09;53.93;98371.34;623126;228;64901;-66
2022/01/25 02:28:52;;;;;;;;;;;;;;;27.07;56.50;98376.23;623095;228;64749;-66
2022/01/25 02:31:20;;;;;;;;;;;;;;;27.06;56.80;98375.41;623099;227;64920;-66
2022/01/25 02:33:48;;;;;;;;;;;;;;;27.03;58.54;98359.77;623117;228;64973;-66
2022/01/25 02:36:25;;;;;;;;;;;;;;;27.02;55.60;98350.08;623115;228;64752;-66
2022/01/25 02:38:53;;;;;;;;;;;;;;;27.03;56.37;98348.98;623134;228;65101;-65
2022/01/25 02:41:20;;;;;;;;;;;;;;;27.02;55.35;98350.08;623068;228;65097;-65
2022/01/25 02:43:48;;;;;;;;;;;;;;;27.01;55.81;98343.08;623082;228;64733;-65
2022/01/25 02:48:58;;;;;;;;;;;;;;;26.98;56.21;98335.52;623106;228;63686;-65
2022/01/25 02:51:27;;;;;;;;;;;;;;;26.96;57.30;98332.31;623055;228;62406;-66
2022/01/25 02:53:56;;;;;;;;;;;;;;;26.96;55.90;98333.11;624411;227;62725;-66
2022/01/25 02:56:24;;;;;;;;;;;;;;;26.96;56.02;98329.61;625252;227;65133;-66
2022/01/25 02:58:52;;;;;;;;;;;;;;;26.93;58.59;98324.78;625269;227;63332;-66
2022/01/25 03:01:21;;;;;;;;;;;;;;;26.92;56.33;98309.66;625262;227;62702;-66
2022/01/25 03:03:49;;;;;;;;;;;;;;;26.90;55.22;98309.13;625238;227;64896;-66
2022/01/25 03:06:17;;;;;;;;;;;;;;;26.91;57.16;98302.67;625253;227;64884;-66
2022/01/25 03:08:45;;;;;;;;;;;;;;;26.89;55.53;98296.73;625262;227;65291;-66
2022/01/25 03:11:12;;;;;;;;;;;;;;;26.89;57.56;98302.13;625228;227;65275;-66
2022/01/25 03:13:53;;;;;;;;;;;;;;;26.87;57.03;98301.59;625259;227;64963;-67
2022/01/25 03:16:31;;;;;;;;;;;;;;;26.88;56.18;98297.83;625248;227;62833;-68
2022/01/25 03:18:55;;;;;;;;;;;;;;;26.84;54.98;98297.56;624621;227;62820;-68
2022/01/25 03:24:01;;;;;;;;;;;;;;;26.82;58.06;98288.97;625273;227;64960;-68
2022/01/25 03:26:28;;;;;;;;;;;;;;;26.82;54.54;98288.13;625247;227;62514;-68
2022/01/25 03:28:56;;;;;;;;;;;;;;;26.81;53.89;98281.14;625260;227;62719;-68
2022/01/25 03:31:24;;;;;;;;;;;;;;;26.78;56.82;98280.60;625194;227;62704;-68
2022/01/25 03:33:51;;;;;;;;;;;;;;;26.76;55.89;98280.09;625304;227;63257;-68
2022/01/25 03:36:19;;;;;;;;;;;;;;;26.78;57.43;98277.91;625327;227;64777;-68
2022/01/25 03:38:47;;;;;;;;;;;;;;;26.78;57.03;98274.41;625252;227;64797;-68
2022/01/25 03:41:15;;;;;;;;;;;;;;;26.76;57.13;98273.88;625272;227;62626;-68
2022/01/25 03:43:44;;;;;;;;;;;;;;;26.73;57.51;98266.34;625229;227;64852;-68
2022/01/25 03:46:22;;;;;;;;;;;;;;;26.72;57.94;98265.55;625260;227;62391;-68
2022/01/25 03:51:11;;;;;;;;;;;;;;;26.71;58.03;98261.25;625226;227;62515;-66
2022/01/25 03:53:38;;;;;;;;;;;;;;;26.72;58.04;98257.45;625205;227;62805;-66
2022/01/25 03:56:06;;;;;;;;;;;;;;;26.69;57.41;98254.52;625233;227;65001;-66
2022/01/25 03:58:33;;;;;;;;;;;;;;;26.68;57.03;98256.41;625241;227;64846;-66
2022/01/25 04:01:01;;;;;;;;;;;;;;;26.66;58.78;98263.97;625297;227;62652;-66
2022/01/25 04:03:35;;;;;;;;;;;;;;;26.65;56.07;98262.34;625230;227;65241;-66
2022/01/25 04:05:58;;;;;;;;;;;;;;;26.65;57.27;98256.94;624993;227;64838;-66
2022/01/25 04:08:26;;;;;;;;;;;;;;;26.65;57.72;98253.45;625243;227;64925;-66
2022/01/25 04:10:54;;;;;;;;;;;;;;;26.65;57.43;98256.14;625198;227;64927;-66
2022/01/25 04:13:22;;;;;;;;;;;;;;;26.63;55.67;98252.91;625365;227;64230;-66
2022/01/25 04:15:52;;;;;;;;;;;;;;;26.60;55.44;98257.00;625247;227;64869;-66
2022/01/25 04:18:47;;;;;;;;;;;;;;;26.62;56.43;98256.70;625212;227;64827;-66
2022/01/25 04:21:24;;;;;;;;;;;;;;;26.58;53.93;98261.85;624610;227;64820;-68
2022/01/25 04:26:24;;;;;;;;;;;;;;;26.54;56.84;98261.58;625272;227;64812;-67
2022/01/25 04:28:51;;;;;;;;;;;;;;;26.56;58.81;98264.02;625282;227;64585;-67
2022/01/25 04:31:20;;;;;;;;;;;;;;;26.52;57.34;98262.97;625301;227;62724;-67
2022/01/25 04:34:08;;;;;;;;;;;;;;;26.50;58.46;98254.31;625217;227;64748;-67
2022/01/25 04:36:49;;;;;;;;;;;;;;;26.51;58.33;98253.25;624234;227;64962;-67
2022/01/25 04:49:55;;;;;;;;;;;;;;;26.43;57.30;98245.72;625253;227;65494;-65
2022/01/25 04:52:26;;;;;;;;;;;;;;;26.41;57.17;98250.56;625072;227;65011;-65
2022/01/25 04:55:42;;;;;;;;;;;;;;;26.40;56.50;98252.46;624913;227;62484;-65
2022/01/25 05:00:14;;;;;;;;;;;;;;;26.40;55.86;98259.75;625240;227;62695;-65
2022/01/25 05:03:05;;;;;;;;;;;;;;;26.40;58.80;98254.36;624887;227;65314;-65
2022/01/25 05:05:32;;;;;;;;;;;;;;;26.39;56.77;98250.06;624490;227;65472;-66
2022/01/25 05:08:20;;;;;;;;;;;;;;;26.37;57.97;98260.30;625074;227;65030;-66
2022/01/25 05:10:47;;;;;;;;;;;;;;;26.34;58.12;98251.68;624652;227;64937;-66
2022/01/25 05:13:35;;;;;;;;;;;;;;;26.33;57.85;98255.47;624719;227;65183;-66
2022/01/25 05:18:23;;;;;;;;;;;;;;;26.32;55.98;98250.34;625262;227;64872;-65
2022/01/25 05:23:34;;;;;;;;;;;;;;;26.30;57.64;98249.80;625305;227;62730;-65
2022/01/25 05:26:02;;;;;;;;;;;;;;;26.28;56.13;98246.60;625265;227;65074;-65
2022/01/25 05:28:29;;;;;;;;;;;;;;;26.26;58.91;98246.06;625270;227;65121;-65
2022/01/25 05:30:57;;;;;;;;;;;;;;;26.25;59.47;98241.77;625261;227;64770;-65
2022/01/25 05:33:25;;;;;;;;;;;;;;;26.24;56.61;98245.52;625243;227;65053;-65
2022/01/25 05:35:52;;;;;;;;;;;;;;;26.22;56.90;98244.98;625254;227;65279;-65
2022/01/25 05:38:19;;;;;;;;;;;;;;;26.20;58.66;98239.89;625258;227;65560;-67
2022/01/25 05:40:56;;;;;;;;;;;;;;;26.22;58.95;98247.67;625124;227;64860;-65
2022/01/25 05:48:27;;;;;;;;;;;;;;;26.19;58.24;98232.06;625238;227;64774;-71
2022/01/25 05:50:55;;;;;;;;;;;;;;;26.13;54.70;98250.14;625303;227;65497;-70
2022/01/25 05:53:23;;;;;;;;;;;;;;;26.13;57.23;98244.75;624227;227;63778;-64
2022/01/25 05:55:51;;;;;;;;;;;;;;;26.10;58.08;98254.19;623103;228;64888;-64
2022/01/25 05:58:18;;;;;;;;;;;;;;;26.12;59.61;98240.45;623087;228;62750;-64
2022/01/25 06:00:46;;;;;;;;;;;;;;;26.10;55.44;98245.30;623067;228;62822;-64
2022/01/25 06:03:13;;;;;;;;;;;;;;;26.10;59.08;98245.30;623067;228;62853;-64
2022/01/25 06:05:41;;;;;;;;;;;;;;;26.08;57.45;98248.29;623113;228;65723;-64
2022/01/25 06:08:09;;;;;;;;;;;;;;;26.07;58.17;98245.86;623083;228;65066;-64
2022/01/25 06:10:37;;;;;;;;;;;;;;;26.06;59.49;98238.87;623112;227;64951;-64
2022/01/25 06:13:05;;;;;;;;;;;;;;;26.06;59.00;98239.67;623103;228;65644;-64
2022/01/25 06:15:33;;;;;;;;;;;;;;;26.08;59.79;98234.82;623065;228;65188;-64
2022/01/25 06:18:01;;;;;;;;;;;;;;;26.07;59.82;98221.61;623094;228;65203;-66
2022/01/25 06:20:29;;;;;;;;;;;;;;;26.07;58.58;98232.39;623106;228;65471;-65
2022/01/25 06:22:57;;;;;;;;;;;;;;;26.08;59.07;98225.91;623070;228;65008;-65
2022/01/25 06:25:24;;;;;;;;;;;;;;;26.09;59.77;98228.34;623032;228;64902;-65
2022/01/25 06:27:52;;;;;;;;;;;;;;;26.08;57.57;98220.52;623048;228;65251;-69
2022/01/25 06:30:20;;;;;;;;;;;;;;;26.07;59.64;98221.61;623011;228;65223;-69
2022/01/25 06:32:48;;;;;;;;;;;;;;;26.05;59.81;98215.69;623017;228;64869;-69
2022/01/25 06:35:17;;;;;;;;;;;;;;;26.05;58.93;98211.10;617878;228;63030;-65
2022/01/25 06:37:45;;;;;;;;;;;;;;;26.06;56.92;98206.55;623047;228;65010;-65
2022/01/25 06:40:14;;;;;;;;;;;;;;;26.07;59.59;98208.14;623047;228;62693;-65
2022/01/25 06:42:41;;;;;;;;;;;;;;;26.06;59.73;98201.95;623092;228;65646;-65
2022/01/25 06:45:14;;;;;;;;;;;;;;;26.07;59.82;98203.56;623047;228;62633;-65
2022/01/25 06:47:39;;;;;;;;;;;;;;;26.07;60.12;98200.06;622927;227;65396;-65
2022/01/25 06:50:07;;;;;;;;;;;;;;;26.07;59.86;98200.06;623079;228;64073;-66
2022/01/25 06:52:38;;;;;;;;;;;;;;;26.07;58.36;98191.98;623102;227;65520;-69
2022/01/25 06:55:06;;;;;;;;;;;;;;;26.09;60.11;98197.91;625202;227;64971;-70
2022/01/25 06:57:34;;;;;;;;;;;;;;;26.04;58.68;98187.15;624926;224;61902;-70
2022/01/25 07:00:01;;;;;;;;;;;;;;;26.03;59.30;98188.24;625570;227;62942;-70
2022/01/25 07:02:29;;;;;;;;;;;;;;;26.05;60.45;98184.16;625582;227;64900;-67
2022/01/25 07:04:56;;;;;;;;;;;;;;;26.05;59.81;98177.97;625399;227;65667;-69
2022/01/25 07:07:24;;;;;;;;;;;;;;;26.07;60.81;98182.00;625479;227;65008;-69
2022/01/25 07:09:51;;;;;;;;;;;;;;;26.05;61.51;98181.47;625410;227;62669;-69
2022/01/25 07:12:19;;;;;;;;;;;;;;;26.05;60.70;98183.36;625516;226;65120;-71
2022/01/25 07:14:47;;;;;;;;;;;;;;;26.04;61.41;98179.06;625522;225;62829;-70
2022/01/25 07:17:15;;;;;;;;;;;;;;;26.05;61.05;98172.59;625606;227;64955;-68
2022/01/25 07:19:42;;;;;;;;;;;;;;;26.06;60.38;98169.63;625526;227;66158;-70
2022/01/25 07:22:09;;;;;;;;;;;;;;;26.06;61.15;98179.61;625796;225;65527;-73
2022/01/25 07:24:37;;;;;;;;;;;;;;;26.05;61.24;98172.59;630141;225;64937;-72
2022/01/25 07:27:05;;;;;;;;;;;;;;;26.06;60.20;98168.83;630099;225;63497;-66
2022/01/25 07:29:33;;;;;;;;;;;;;;;26.05;59.81;98165.30;630175;225;63164;-68
2022/01/25 07:32:00;;;;;;;;;;;;;;;26.04;59.98;98166.40;630123;225;66280;-69
2022/01/25 07:34:30;;;;;;;;;;;;;;;26.06;58.37;98161.55;630098;224;65572;-66
2022/01/25 07:36:57;;;;;;;;;;;;;;;26.09;58.74;98160.99;630201;225;64991;-68
2022/01/25 07:39:26;;;;;;;;;;;;;;;26.10;58.60;98156.41;630189;225;64908;-68
2022/01/25 07:41:57;;;;;;;;;;;;;;;26.11;59.26;98163.42;630054;225;65210;-71
2022/01/25 07:44:28;;;;;;;;;;;;;;;26.09;55.52;98152.11;630174;225;64876;-71
2022/01/25 07:46:53;;;;;;;;;;;;;;;25.99;50.75;98147.56;630141;223;65057;-66
2022/01/25 07:49:21;;;;;;;;;;;;;;;26.02;52.84;98147.01;630195;225;65586;-68
2022/01/25 07:51:49;;;;;;;;;;;;;;;26.04;55.48;98139.47;626082;225;62954;-73
2022/01/25 07:54:16;;;;;;;;;;;;;;;26.06;57.66;98152.67;625731;225;62748;-71
2022/01/25 07:56:44;;;;;;;;;;;;;;;26.05;56.38;98153.73;624691;227;62981;-70
2022/01/25 07:59:13;;;;;;;;;;;;;;;26.06;58.33;98141.89;624665;227;64934;-71
2022/01/25 08:01:42;;;;;;;;;;;;;;;26.06;57.92;98148.08;622213;227;64905;-68
2022/01/25 08:04:10;;;;;;;;;;;;;;;26.06;59.44;98148.08;624631;227;63143;-70
2022/01/25 08:06:38;;;;;;;;;;;;;;;26.05;57.43;98146.45;624686;227;65553;-69
2022/01/25 08:09:07;;;;;;;;;;;;;;;26.06;58.21;98144.59;624650;227;65292;-73
2022/01/25 08:11:35;;;;;;;;;;;;;;;26.05;56.99;98146.45;624684;227;65484;-69
2022/01/25 08:14:13;;;;;;;;;;;;;;;26.06;57.18;98144.59;624730;227;64958;-71
2022/01/25 08:16:42;;;;;;;;;;;;;;;26.06;57.36;98131.92;624653;227;63017;-66
2022/01/25 08:19:10;;;;;;;;;;;;;;;26.08;58.37;98139.70;624708;227;65384;-70
2022/01/25 08:21:37;;;;;;;;;;;;;;;26.09;56.07;98142.14;624696;227;62604;-70
2022/01/25 08:24:13;;;;;;;;;;;;;;;26.13;58.78;98136.98;624656;227;65192;-71
2022/01/25 08:26:41;;;;;;;;;;;;;;;26.15;58.80;98134.03;624648;227;62775;-72
2022/01/25 08:29:10;;;;;;;;;;;;;;;26.18;59.23;98128.88;622184;227;68361;-72
2022/01/25 08:31:42;;;;;;;;;;;;;;;26.19;59.57;98125.13;624528;224;65361;-71
2022/01/25 08:34:13;;;;;;;;;;;;;;;26.21;59.38;98124.83;624671;227;65435;-70
2022/01/25 08:36:40;;;;;;;;;;;;;;;26.23;59.61;98119.98;624681;227;65004;-70
2022/01/25 08:39:08;;;;;;;;;;;;;;;26.25;58.99;98123.20;624656;227;62743;-70
2022/01/25 08:41:36;;;;;;;;;;;;;;;26.25;59.73;98110.53;624477;227;65331;-71
2022/01/25 08:44:04;;;;;;;;;;;;;;;26.25;59.23;98110.53;624671;227;64865;-71
2022/01/25 08:46:32;;;;;;;;;;;;;;;26.26;59.55;98112.13;624609;227;65689;-69
2022/01/25 08:49:00;;;;;;;;;;;;;;;26.29;59.53;98113.47;624485;227;65168;-69
2022/01/25 08:51:28;;;;;;;;;;;;;;;26.30;59.92;98110.50;624784;227;65485;-66
2022/01/25 08:53:55;;;;;;;;;;;;;;;26.32;59.24;98102.13;626028;226;64853;-72
2022/01/25 08:56:23;;;;;;;;;;;;;;;26.34;57.85;98102.66;626982;226;65254;-64
2022/01/25 08:58:50;;;;;;;;;;;;;;;26.27;54.36;98102.98;626905;226;62836;-67
2022/01/25 09:01:18;;;;;;;;;;;;;;;26.32;56.57;98105.61;626996;226;62895;-61
2022/01/25 09:03:46;;;;;;;;;;;;;;;26.33;57.85;98093.77;627006;226;63669;-67
2022/01/25 09:06:13;;;;;;;;;;;;;;;26.34;57.92;98091.88;626932;226;65010;-70
2022/01/25 09:08:41;;;;;;;;;;;;;;;26.34;57.16;98092.67;627010;226;64918;-69
2022/01/25 09:11:08;;;;;;;;;;;;;;;26.37;58.17;98085.12;626902;226;65416;-70
2022/01/25 09:13:36;;;;;;;;;;;;;;;26.39;56.98;98083.76;622842;226;62669;-69
2022/01/25 09:16:04;;;;;;;;;;;;;;;26.41;57.58;98084.30;626964;226;62720;-67
2022/01/25 09:18:32;;;;;;;;;;;;;;;26.41;58.06;98083.46;626988;226;65137;-68
2022/01/25 09:20:59;;;;;;;;;;;;;;;26.41;58.79;98073.52;626932;226;65464;-67
2022/01/25 09:23:27;;;;;;;;;;;;;;;26.42;58.73;98074.31;627000;226;65332;-63
2022/01/25 09:25:55;;;;;;;;;;;;;;;26.40;56.92;98065.69;626949;226;65545;-65
2022/01/25 09:28:23;;;;;;;;;;;;;;;26.37;57.23;98079.73;626894;226;63042;-68
2022/01/25 09:30:52;;;;;;;;;;;;;;;26.39;55.41;98072.18;626987;226;62504;-68
2022/01/25 09:33:19;;;;;;;;;;;;;;;26.42;55.39;98063.53;626949;226;63157;-63
2022/01/25 09:35:48;;;;;;;;;;;;;;;26.40;55.82;98063.80;626977;226;62916;-68
2022/01/25 09:38:16;;;;;;;;;;;;;;;26.42;56.40;98052.75;627005;226;65041;-68
2022/01/25 09:40:44;;;;;;;;;;;;;;;26.41;57.46;98053.81;626997;226;65123;-67
2022/01/25 09:43:12;;;;;;;;;;;;;;;26.43;56.34;98043.56;626970;226;65012;-67
2022/01/25 09:45:41;;;;;;;;;;;;;;;26.41;56.31;98037.64;626979;226;64849;-67
2022/01/25 09:48:09;;;;;;;;;;;;;;;26.43;56.59;98033.58;626961;226;65679;-71
2022/01/25 09:50:37;;;;;;;;;;;;;;;26.39;57.16;98031.75;626962;226;63752;-66
2022/01/25 09:53:05;;;;;;;;;;;;;;;26.43;56.32;98032.78;626939;226;62755;-66
2022/01/25 09:55:34;;;;;;;;;;;;;;;26.44;55.13;98034.41;626889;226;63075;-66
2022/01/25 09:58:02;;;;;;;;;;;;;;;26.46;55.76;98024.12;626887;226;62874;-66
2022/01/25 10:00:31;;;;;;;;;;;;;;;26.46;55.13;98016.05;627003;226;65053;-65
2022/01/25 10:03:10;;;;;;;;;;;;;;;26.46;55.87;98018.73;626881;226;62996;-61
2022/01/25 10:05:37;;;;;;;;;;;;;;;26.46;56.32;98019.53;626800;225;62937;-63
2022/01/25 10:08:07;;;;;;;;;;;;;;;26.44;56.31;98018.23;626930;226;65097;-66
2022/01/25 10:10:36;;;;;;;;;;;;;;;26.47;56.48;98012.28;626870;226;65235;-63
2022/01/25 10:13:22;;;;;;;;;;;;;;;26.47;55.70;98015.77;626965;226;65145;-63
2022/01/25 10:15:51;;;;;;;;;;;;;;;26.47;57.21;98009.59;626997;226;64843;-65
2022/01/25 10:18:19;;;;;;;;;;;;;;;26.47;55.84;98007.69;626347;226;62918;-64
2022/01/25 10:20:48;;;;;;;;;;;;;;;26.49;56.46;98004.69;626946;226;63040;-65
2022/01/25 10:23:18;;;;;;;;;;;;;;;26.48;55.84;97995.80;626997;226;64871;-62
2022/01/25 10:25:48;;;;;;;;;;;;;;;26.49;54.56;98002.83;626903;226;65499;-64
2022/01/25 10:28:16;;;;;;;;;;;;;;;26.47;56.71;97998.80;626953;226;64791;-63
2022/01/25 10:30:48;;;;;;;;;;;;;;;26.47;55.51;98004.20;626971;226;65054;-63
2022/01/25 10:33:20;;;;;;;;;;;;;;;26.48;55.81;97998.50;626937;226;65495;-65
2022/01/25 10:35:48;;;;;;;;;;;;;;;26.49;55.35;97988.52;626959;226;65563;-64
2022/01/25 10:38:20;;;;;;;;;;;;;;;26.48;56.14;97987.72;626846;226;65069;-64
2022/01/25 10:40:49;;;;;;;;;;;;;;;26.50;55.86;97985.55;626819;225;63027;-64
2022/01/25 10:43:18;;;;;;;;;;;;;;;26.49;54.71;97985.83;626586;225;65296;-64
2022/01/25 10:45:45;;;;;;;;;;;;;;;26.51;54.87;97983.69;626932;225;62708;-64
2022/01/25 10:48:14;;;;;;;;;;;;;;;26.51;54.08;97978.30;626842;226;65430;-64
2022/01/25 10:50:44;;;;;;;;;;;;;;;26.53;54.06;97976.13;626915;226;62827;-61
2022/01/25 10:53:15;;;;;;;;;;;;;;;26.53;54.91;97976.13;626819;225;62655;-62
2022/01/25 10:55:46;;;;;;;;;;;;;;;26.53;53.95;97965.34;626857;225;63039;-66
2022/01/25 10:58:14;;;;;;;;;;;;;;;26.54;53.86;97959.66;626889;226;65565;-64
2022/01/25 11:00:44;;;;;;;;;;;;;;;26.53;52.51;97965.34;626881;226;62660;-64
2022/01/25 11:03:11;;;;;;;;;;;;;;;26.53;52.72;97963.45;626961;225;63151;-63
2022/01/25 11:05:43;;;;;;;;;;;;;;;26.51;54.86;97948.64;627003;226;65170;-64
2022/01/25 11:08:17;;;;;;;;;;;;;;;26.53;53.46;97957.26;626930;226;65024;-63
2022/01/25 11:10:51;;;;;;;;;;;;;;;26.53;52.42;97935.70;626960;226;63048;-63
2022/01/25 11:13:36;;;;;;;;;;;;;;;26.54;53.10;97937.29;626839;225;63132;-67
2022/01/25 11:15:48;;;;;;;;;;;;;;;26.54;52.67;97934.59;625817;225;63707;-61
2022/01/25 11:18:16;;;;;;;;;;;;;;;26.53;54.85;97941.09;626964;226;63012;-67
2022/01/25 11:20:44;;;;;;;;;;;;;;;26.47;53.70;97929.52;626963;226;65229;-67
2022/01/25 11:23:12;;;;;;;;;;;;;;;26.41;55.08;97921.75;626987;226;65110;-68
2022/01/25 11:25:41;;;;;;;;;;;;;;;26.34;54.66;97922.09;626933;226;65383;-68
2022/01/25 11:28:09;;;;;;;;;;;;;;;26.33;55.23;97915.91;626825;226;65948;-68
2022/01/25 11:30:38;;;;;;;;;;;;;;;26.31;53.45;97910.00;626940;226;62658;-68
2022/01/25 11:33:07;;;;;;;;;;;;;;;26.31;54.65;97903.81;626963;226;65546;-68
2022/01/25 11:35:35;;;;;;;;;;;;;;;26.28;54.70;97905.18;626926;226;63135;-68
2022/01/25 11:38:03;;;;;;;;;;;;;;;26.29;54.87;97914.86;626923;226;64912;-68
2022/01/25 11:40:38;;;;;;;;;;;;;;;26.28;54.79;97901.69;626995;226;65381;-68
2022/01/25 11:43:14;;;;;;;;;;;;;;;26.27;55.07;97906.27;626866;226;62753;-68
2022/01/25 11:45:43;;;;;;;;;;;;;;;26.29;53.54;97900.59;626958;226;64957;-69
2022/01/25 11:48:11;;;;;;;;;;;;;;;26.29;55.53;97903.28;626911;226;63026;-68
2022/01/25 11:50:40;;;;;;;;;;;;;;;26.29;53.61;97901.39;626927;226;63141;-69
2022/01/25 11:53:09;;;;;;;;;;;;;;;26.30;55.00;97894.09;626860;226;65022;-69
2022/01/25 11:55:38;;;;;;;;;;;;;;;26.28;54.60;97890.91;626753;225;62362;-68
2022/01/25 11:58:07;;;;;;;;;;;;;;;26.28;54.89;97885.52;626823;226;62830;-68
2022/01/25 12:00:54;;;;;;;;;;;;;;;26.26;54.91;97888.48;626924;226;65798;-68
2022/01/25 12:03:39;;;;;;;;;;;;;;;26.26;55.09;97901.95;626893;226;65555;-69
2022/01/25 12:06:19;;;;;;;;;;;;;;;26.28;54.99;97890.91;626949;226;65209;-68
2022/01/25 12:11:17;;;;;;;;;;;;;;;26.30;53.42;97883.32;626822;226;66014;-68
2022/01/25 12:13:44;;;;;;;;;;;;;;;26.31;54.36;97885.74;624654;226;65027;-68
2022/01/25 12:16:27;;;;;;;;;;;;;;;26.27;54.41;97878.50;626819;226;65802;-68
2022/01/25 12:18:59;;;;;;;;;;;;;;;26.28;53.48;97880.93;626723;225;63353;-67
2022/01/25 12:21:44;;;;;;;;;;;;;;;26.29;54.11;97879.83;626978;226;62955;-66
2022/01/25 12:24:25;;;;;;;;;;;;;;;26.30;54.98;97869.84;626971;226;63757;-66
2022/01/25 12:27:03;;;;;;;;;;;;;;;26.31;54.44;97872.27;626853;225;65413;-70
2022/01/25 12:29:31;;;;;;;;;;;;;;;26.30;53.66;97878.76;626897;225;65205;-66
2022/01/25 12:32:17;;;;;;;;;;;;;;;26.36;53.27;97866.03;626940;226;62963;-68
2022/01/25 12:35:03;;;;;;;;;;;;;;;26.40;53.38;97866.26;627012;225;52751;-67
2022/01/25 12:37:54;;;;;;;;;;;;;;;26.43;53.58;97858.39;619499;229;65028;-65
2022/01/25 12:40:32;;;;;;;;;;;;;;;26.47;52.76;97864.84;625442;226;62784;-68
2022/01/25 12:43:07;;;;;;;;;;;;;;;26.50;53.61;97863.46;626732;225;63004;-63
2022/01/25 12:45:41;;;;;;;;;;;;;;;26.50;53.22;97860.77;627014;226;62877;-65
2022/01/25 12:48:09;;;;;;;;;;;;;;;26.47;54.31;97862.14;626872;226;62860;-64
2022/01/25 12:50:38;;;;;;;;;;;;;;;26.50;55.49;97858.07;627887;223;65400;-64
2022/01/25 12:53:07;;;;;;;;;;;;;;;26.49;55.53;97861.84;626817;226;65113;-64
2022/01/25 12:55:36;;;;;;;;;;;;;;;26.48;54.00;97852.95;628836;223;65007;-64
2022/01/25 12:58:04;;;;;;;;;;;;;;;26.50;55.12;97856.17;626816;226;65181;-64
2022/01/25 13:00:36;;;;;;;;;;;;;;;26.52;55.71;97862.12;627045;226;61705;-64
2022/01/25 13:03:17;;;;;;;;;;;;;;;26.54;54.04;97859.12;626614;226;65072;-65
2022/01/25 13:05:50;;;;;;;;;;;;;;;26.55;54.06;97852.66;627021;226;63058;-65
2022/01/25 13:08:18;;;;;;;;;;;;;;;26.55;54.29;97841.88;626803;226;65521;-66
2022/01/25 13:10:48;;;;;;;;;;;;;;;26.56;54.13;97840.77;626938;226;65191;-65
2022/01/25 13:13:23;;;;;;;;;;;;;;;26.56;54.29;97838.08;626983;226;63278;-65
2022/01/25 13:18:15;;;;;;;;;;;;;;;26.57;55.44;97834.28;626886;226;64835;-66
2022/01/25 13:20:46;;;;;;;;;;;;;;;26.58;55.33;97835.91;626922;226;65174;-65
2022/01/25 13:23:12;;;;;;;;;;;;;;;26.58;55.15;97835.11;626842;226;63157;-65
2022/01/25 13:26:07;;;;;;;;;;;;;;;26.58;55.88;97830.51;627039;226;64892;-66
2022/01/25 13:31:07;;;;;;;;;;;;;;;26.60;55.10;97819.42;626950;226;65111;-65
2022/01/25 13:33:35;;;;;;;;;;;;;;;26.59;55.08;97821.32;626953;226;65066;-65
2022/01/25 13:36:04;;;;;;;;;;;;;;;26.58;55.67;97825.12;626837;226;65655;-67
2022/01/25 13:38:32;;;;;;;;;;;;;;;26.58;55.47;97819.73;626885;226;63967;-66
2022/01/25 13:46:30;;;;;;;;;;;;;;;26.61;54.70;97821.05;626964;226;65211;-67
2022/01/25 13:48:59;;;;;;;;;;;;;;;26.61;55.61;97813.76;626744;226;65266;-67
2022/01/25 13:51:29;;;;;;;;;;;;;;;26.62;56.08;97815.35;626837;226;64924;-67
2022/01/25 13:53:57;;;;;;;;;;;;;;;26.63;55.06;97811.58;624382;226;66893;-68
2022/01/25 13:56:27;;;;;;;;;;;;;;;26.61;56.12;97813.76;623194;227;63781;-68
2022/01/25 13:58:55;;;;;;;;;;;;;;;26.63;55.87;97810.75;622821;227;67017;-67
2022/01/25 14:01:24;;;;;;;;;;;;;;;26.62;55.62;97804.56;623248;227;66868;-67
2022/01/25 14:03:59;;;;;;;;;;;;;;;26.62;55.37;97801.87;623236;227;64858;-68
2022/01/25 14:06:27;;;;;;;;;;;;;;;26.62;56.16;97792.98;623125;227;67332;-67
2022/01/25 14:08:56;;;;;;;;;;;;;;;26.63;55.62;97795.41;623252;227;66984;-65
2022/01/25 14:24:52;;;;;;;;;;;;;;;26.60;56.79;97792.47;623268;227;67535;-68
2022/01/25 14:27:23;;;;;;;;;;;;;;;26.60;55.73;97803.25;623182;227;65108;-68
2022/01/25 14:29:52;;;;;;;;;;;;;;;26.59;56.51;97804.35;623269;227;65195;-67
2022/01/25 14:32:33;;;;;;;;;;;;;;;26.59;56.54;97799.75;623210;227;67007;-66
2022/01/25 14:35:08;;;;;;;;;;;;;;;26.59;55.47;97804.35;623251;227;65159;-66
2022/01/25 14:37:37;;;;;;;;;;;;;;;26.58;56.61;97808.15;629922;225;67230;-67
2022/01/25 14:40:06;;;;;;;;;;;;;;;26.60;55.12;97808.64;623952;225;66980;-67
2022/01/25 14:42:33;;;;;;;;;;;;;;;26.59;56.61;97805.14;623263;227;62995;-69
2022/01/25 14:45:02;;;;;;;;;;;;;;;26.59;56.74;97815.93;623270;227;64557;-74
2022/01/25 14:47:38;;;;;;;;;;;;;;;26.59;56.83;97817.83;623237;227;66926;-75
2022/01/25 14:50:04;;;;;;;;;;;;;;;26.58;56.70;97824.32;623183;227;62802;-75
2022/01/25 14:52:32;;;;;;;;;;;;;;;26.56;55.67;97829.98;623089;227;65297;-74
2022/01/25 14:54:59;;;;;;;;;;;;;;;26.55;56.34;97826.50;621985;228;66920;-73
2022/01/25 14:57:38;;;;;;;;;;;;;;;26.56;56.01;97827.30;621962;228;65052;-69
2022/01/25 15:00:00;;;;;;;;;;;;;;;26.54;55.68;97830.27;620745;228;67039;-76
2022/01/25 15:02:27;;;;;;;;;;;;;;;26.53;57.32;97842.14;621983;228;67504;-70
2022/01/25 15:05:03;;;;;;;;;;;;;;;26.53;53.20;97844.05;621857;228;64728;-72
2022/01/25 15:07:30;;;;;;;;;;;;;;;26.45;54.75;97847.34;621758;228;64758;-71